Terminal Aerodrome Forecast
Issued by NWS Charleston, WV

Current Version | Previous Version | Graphics & Text | Print | Product List | Glossary On
Versions: 1 2 3 4 5 6 7 8 9 10 11 12 13 14 15 16 17 18 19 20 21 22 23 24
000
FTUS41 KRLX 281514 AAA
TAFBKW
TAF AMD
KBKW 281514Z 2815/2912 00000KT P6SM BKN035
     FM281900 VRB03KT P6SM VCTS BKN035CB
     FM282200 00000KT P6SM SCT025
     FM290500 00000KT 6SM BR SCT035
     FM291100 00000KT P6SM SCT040=

USA.gov is the U.S. government's official web portal to all federal, state and local government web resources and services.